<?xml version="1.0" encoding="UTF-8" standalone="no" ?>
<gpx xmlns="http://www.topografix.com/GPX/1/1" xmlns:xsi="http://www.w3.org/2001/XMLSchema-instance" xsi:schemaLocation="http://www.topografix.com/GPX/1/1 http://www.topografix.com/GPX/1/1/gpx.xsd" version="1.1" creator="VisuGPX - https://www.visugpx.com">
  <metadata>
    <name>boucles beaumont</name>
    <desc><![CDATA[boucles beaumont du périgord]]></desc>
  </metadata>
  <trk>
    <name><![CDATA[BBmt57]]></name>
    <trkseg>
      <trkpt lat="44.7689" lon="0.76645">
        <ele>119</ele>
        <time>2009-01-19T13:30:21Z</time>
      </trkpt>
      <trkpt lat="44.76913" lon="0.76638">
        <ele>121</ele>
        <time>2009-01-19T13:30:29Z</time>
      </trkpt>
      <trkpt lat="44.76933" lon="0.76628">
        <ele>123</ele>
        <time>2009-01-19T13:30:32Z</time>
      </trkpt>
      <trkpt lat="44.76955" lon="0.76618">
        <ele>123</ele>
        <time>2009-01-19T13:30:35Z</time>
      </trkpt>
      <trkpt lat="44.76973" lon="0.7661">
        <ele>124</ele>
        <time>2009-01-19T13:30:38Z</time>
      </trkpt>
      <trkpt lat="44.7699" lon="0.76603">
        <ele>128</ele>
        <time>2009-01-19T13:31:03Z</time>
      </trkpt>
      <trkpt lat="44.77008" lon="0.7659">
        <ele>127</ele>
        <time>2009-01-19T13:31:07Z</time>
      </trkpt>
      <trkpt lat="44.77025" lon="0.7658">
        <ele>127</ele>
        <time>2009-01-19T13:31:09Z</time>
      </trkpt>
      <trkpt lat="44.77055" lon="0.76563">
        <ele>126</ele>
        <time>2009-01-19T13:31:12Z</time>
      </trkpt>
      <trkpt lat="44.77085" lon="0.76545">
        <ele>125</ele>
        <time>2009-01-19T13:31:14Z</time>
      </trkpt>
      <trkpt lat="44.77105" lon="0.76535">
        <ele>124</ele>
        <time>2009-01-19T13:31:16Z</time>
      </trkpt>
      <trkpt lat="44.77123" lon="0.76523">
        <ele>124</ele>
        <time>2009-01-19T13:31:19Z</time>
      </trkpt>
      <trkpt lat="44.77145" lon="0.76503">
        <ele>124</ele>
        <time>2009-01-19T13:31:21Z</time>
      </trkpt>
      <trkpt lat="44.7716" lon="0.76483">
        <ele>124</ele>
        <time>2009-01-19T13:31:24Z</time>
      </trkpt>
      <trkpt lat="44.7717" lon="0.7646">
        <ele>123</ele>
        <time>2009-01-19T13:31:34Z</time>
      </trkpt>
      <trkpt lat="44.77183" lon="0.76428">
        <ele>122</ele>
        <time>2009-01-19T13:31:38Z</time>
      </trkpt>
      <trkpt lat="44.77195" lon="0.76405">
        <ele>121</ele>
        <time>2009-01-19T13:31:41Z</time>
      </trkpt>
      <trkpt lat="44.77213" lon="0.76393">
        <ele>119</ele>
        <time>2009-01-19T13:31:44Z</time>
      </trkpt>
      <trkpt lat="44.77228" lon="0.76378">
        <ele>115</ele>
        <time>2009-01-19T13:31:56Z</time>
      </trkpt>
      <trkpt lat="44.7723" lon="0.7635">
        <ele>108</ele>
        <time>2009-01-19T13:32:02Z</time>
      </trkpt>
      <trkpt lat="44.77233" lon="0.76323">
        <ele>106</ele>
        <time>2009-01-19T13:32:06Z</time>
      </trkpt>
      <trkpt lat="44.77238" lon="0.76295">
        <ele>105</ele>
        <time>2009-01-19T13:32:11Z</time>
      </trkpt>
      <trkpt lat="44.77238" lon="0.76268">
        <ele>105</ele>
        <time>2009-01-19T13:32:16Z</time>
      </trkpt>
      <trkpt lat="44.7724" lon="0.76235">
        <ele>110</ele>
        <time>2009-01-19T13:32:21Z</time>
      </trkpt>
      <trkpt lat="44.7724" lon="0.76205">
        <ele>110</ele>
        <time>2009-01-19T13:32:26Z</time>
      </trkpt>
      <trkpt lat="44.77243" lon="0.76175">
        <ele>107</ele>
        <time>2009-01-19T13:32:31Z</time>
      </trkpt>
      <trkpt lat="44.77245" lon="0.76148">
        <ele>104</ele>
        <time>2009-01-19T13:32:37Z</time>
      </trkpt>
      <trkpt lat="44.77243" lon="0.76118">
        <ele>102</ele>
        <time>2009-01-19T13:32:42Z</time>
      </trkpt>
      <trkpt lat="44.77238" lon="0.76093">
        <ele>109</ele>
        <time>2009-01-19T13:33:39Z</time>
      </trkpt>
      <trkpt lat="44.7726" lon="0.76018">
        <ele>87</ele>
        <time>2009-01-19T13:37:25Z</time>
      </trkpt>
      <trkpt lat="44.77265" lon="0.75993">
        <ele>85</ele>
        <time>2009-01-19T13:37:41Z</time>
      </trkpt>
      <trkpt lat="44.77275" lon="0.7597">
        <ele>82</ele>
        <time>2009-01-19T13:37:46Z</time>
      </trkpt>
      <trkpt lat="44.77283" lon="0.75945">
        <ele>75</ele>
        <time>2009-01-19T13:37:53Z</time>
      </trkpt>
      <trkpt lat="44.7729" lon="0.7592">
        <ele>72</ele>
        <time>2009-01-19T13:38:00Z</time>
      </trkpt>
      <trkpt lat="44.77298" lon="0.75893">
        <ele>72</ele>
        <time>2009-01-19T13:38:07Z</time>
      </trkpt>
      <trkpt lat="44.77303" lon="0.75868">
        <ele>72</ele>
        <time>2009-01-19T13:38:12Z</time>
      </trkpt>
      <trkpt lat="44.77313" lon="0.75843">
        <ele>72</ele>
        <time>2009-01-19T13:38:17Z</time>
      </trkpt>
    </trkseg>
  </trk>
</gpx>